Search for airport 
image banner adimage banner ad
image banner ad

SSRU - São Lourenço do Sul Airport

Located in São Lourenço Do Sul, Brazil

ICAO - SSRU, IATA - SQY

Data provided by Airmate  

General information

Coordinates: S31°22'60" W52°1'58"
Elevation is 26 feet MSL.
Magnetic variation is -16° East
View others Airports in Rio Grande do Sul

Operational data

Open for public use
Current time UTC:
Current local time:
Weather at : SBPK - Pelotas ( 47 km )
METAR: SBPK 011200Z 10011KT 9999 OVC032 21/14 Q1018
TAF: TAF SBPK 010900Z 0112/0212 12008KT 9999 SCT030 TX24/0117Z TN19/0208Z BECMG 0114/0116 06010KT BKN035 BECMG 0120/0122 SCT040 BECMG 0206/0208 12010KT SCT020 RMK PEO
View NOTAMs / SUP AIP / TFR affecting this airport [VIEW]
Communications frequencies: [VIEW]

Runways:

RWY identifierQFULength (ft)Width (ft)SurfaceLDA (ft)
21360959GRE
03360959UNK

Airport contact information

Address: São Lourenço Do Sul Brazil

Satellite view of SSRU